Terminal Aerodrome Forecast
Issued by NWS Mt. Holly, NJ

Home | Current Version | Previous Version | Text Only | Print | Product List | Glossary On
Versions: 1 2 3 4 5 6 7 8 9 10 11 12 13 14 15 16 17
000
FTAK31 PANC 262343
TAFABE
TAF
PABE 262343Z 2700/2724 VRB04KT P6SM SCT022 BKN050
      TEMPO 2700/2702 SCT050 BKN080
     FM270200 20008KT P6SM VCSH OVC040
     FM271000 VRB03KT 2SM BR BKN008
      TEMPO 2714/2718 1/2SM FG BKN002
     FM271800 24006KT P6SM OVC025=

USA.gov is the U.S. government's official web portal to all federal, state and local government web resources and services.